sensor_id;sensor_type;location;lat;lon;timestamp;pressure;altitude;pressure_sealevel;temperature;humidity
16821;BME280;8527;49.740;6.604;2024-02-04T00:04:24;100870.22;;;8.93;100.00
16821;BME280;8527;49.740;6.604;2024-02-04T00:09:28;100846.53;;;8.91;100.00
16821;BME280;8527;49.740;6.604;2024-02-04T00:14:26;100833.31;;;8.91;100.00
16821;BME280;8527;49.740;6.604;2024-02-04T00:19:25;100824.41;;;8.92;100.00
16821;BME280;8527;49.740;6.604;2024-02-04T00:24:26;100832.59;;;8.89;100.00
16821;BME280;8527;49.740;6.604;2024-02-04T00:29:25;100827.06;;;8.92;100.00
16821;BME280;8527;49.740;6.604;2024-02-04T00:34:23;100833.16;;;8.93;100.00
16821;BME280;8527;49.740;6.604;2024-02-04T00:39:22;100830.50;;;8.93;100.00
16821;BME280;8527;49.740;6.604;2024-02-04T00:44:23;100841.50;;;8.88;100.00
16821;BME280;8527;49.740;6.604;2024-02-04T00:49:21;100831.06;;;8.86;100.00
16821;BME280;8527;49.740;6.604;2024-02-04T00:54:21;100829.94;;;8.89;100.00
16821;BME280;8527;49.740;6.604;2024-02-04T00:59:22;100846.41;;;8.93;100.00
16821;BME280;8527;49.740;6.604;2024-02-04T01:04:26;100838.91;;;8.98;100.00
16821;BME280;8527;49.740;6.604;2024-02-04T01:09:25;100842.78;;;8.94;100.00
16821;BME280;8527;49.740;6.604;2024-02-04T01:14:26;100847.81;;;8.97;100.00
16821;BME280;8527;49.740;6.604;2024-02-04T01:19:25;100846.13;;;8.96;100.00
16821;BME280;8527;49.740;6.604;2024-02-04T01:24:23;100854.91;;;8.96;100.00
16821;BME280;8527;49.740;6.604;2024-02-04T01:29:22;100862.47;;;9.01;100.00
16821;BME280;8527;49.740;6.604;2024-02-04T01:34:24;100855.19;;;8.93;100.00
16821;BME280;8527;49.740;6.604;2024-02-04T01:39:25;100855.19;;;8.93;100.00
16821;BME280;8527;49.740;6.604;2024-02-04T01:44:23;100849.63;;;8.96;100.00
16821;BME280;8527;49.740;6.604;2024-02-04T01:49:25;100848.06;;;8.94;100.00
16821;BME280;8527;49.740;6.604;2024-02-04T01:54:25;100830.41;;;8.94;100.00
16821;BME280;8527;49.740;6.604;2024-02-04T01:59:30;100851.63;;;9.04;100.00
16821;BME280;8527;49.740;6.604;2024-02-04T02:04:34;100852.84;;;9.00;100.00
16821;BME280;8527;49.740;6.604;2024-02-04T02:09:32;100849.34;;;8.99;100.00
16821;BME280;8527;49.740;6.604;2024-02-04T02:14:33;100854.34;;;8.93;100.00
16821;BME280;8527;49.740;6.604;2024-02-04T02:19:42;100854.53;;;9.01;100.00
16821;BME280;8527;49.740;6.604;2024-02-04T02:24:46;100846.91;;;9.08;100.00
16821;BME280;8527;49.740;6.604;2024-02-04T02:29:48;100834.09;;;9.13;100.00
16821;BME280;8527;49.740;6.604;2024-02-04T02:34:48;100832.22;;;9.04;100.00
16821;BME280;8527;49.740;6.604;2024-02-04T02:39:57;100829.59;;;9.04;100.00
16821;BME280;8527;49.740;6.604;2024-02-04T02:44:56;100816.13;;;9.07;100.00
16821;BME280;8527;49.740;6.604;2024-02-04T02:49:56;100816.22;;;9.05;100.00
16821;BME280;8527;49.740;6.604;2024-02-04T02:55:00;100824.44;;;9.02;100.00
16821;BME280;8527;49.740;6.604;2024-02-04T02:59:59;100824.28;;;9.04;100.00
16821;BME280;8527;49.740;6.604;2024-02-04T03:04:58;100810.25;;;9.03;100.00
16821;BME280;8527;49.740;6.604;2024-02-04T03:10:00;100812.88;;;9.03;100.00
16821;BME280;8527;49.740;6.604;2024-02-04T03:14:58;100799.91;;;9.00;100.00
16821;BME280;8527;49.740;6.604;2024-02-04T03:19:57;100796.69;;;8.96;100.00
16821;BME280;8527;49.740;6.604;2024-02-04T03:24:55;100808.97;;;8.97;100.00
16821;BME280;8527;49.740;6.604;2024-02-04T03:29:56;100801.59;;;9.01;100.00
16821;BME280;8527;49.740;6.604;2024-02-04T03:34:55;100798.41;;;9.07;100.00
16821;BME280;8527;49.740;6.604;2024-02-04T03:39:55;100797.28;;;9.00;100.00
16821;BME280;8527;49.740;6.604;2024-02-04T03:44:56;100799.78;;;9.01;100.00
16821;BME280;8527;49.740;6.604;2024-02-04T03:49:56;100796.16;;;9.03;100.00
16821;BME280;8527;49.740;6.604;2024-02-04T03:54:55;100793.34;;;8.94;100.00
16821;BME280;8527;49.740;6.604;2024-02-04T03:59:57;100793.47;;;8.93;100.00
16821;BME280;8527;49.740;6.604;2024-02-04T04:04:55;100793.84;;;8.88;100.00
16821;BME280;8527;49.740;6.604;2024-02-04T04:09:54;100806.69;;;8.93;100.00
16821;BME280;8527;49.740;6.604;2024-02-04T04:14:52;100791.66;;;8.93;100.00
16821;BME280;8527;49.740;6.604;2024-02-04T04:19:54;100795.53;;;8.89;100.00
16821;BME280;8527;49.740;6.604;2024-02-04T04:24:57;100817.44;;;8.91;100.00
16821;BME280;8527;49.740;6.604;2024-02-04T04:29:55;100817.88;;;8.96;100.00
16821;BME280;8527;49.740;6.604;2024-02-04T04:34:56;100806.25;;;8.88;100.00
16821;BME280;8527;49.740;6.604;2024-02-04T04:39:55;100814.06;;;8.89;100.00
16821;BME280;8527;49.740;6.604;2024-02-04T04:44:53;100801.09;;;8.86;100.00
16821;BME280;8527;49.740;6.604;2024-02-04T04:49:52;100802.78;;;8.87;100.00
16821;BME280;8527;49.740;6.604;2024-02-04T04:54:54;100793.03;;;8.88;100.00
16821;BME280;8527;49.740;6.604;2024-02-04T04:59:53;100777.16;;;8.88;100.00
16821;BME280;8527;49.740;6.604;2024-02-04T05:04:54;100796.06;;;8.83;100.00
16821;BME280;8527;49.740;6.604;2024-02-04T05:10:03;100785.34;;;8.84;100.00
16821;BME280;8527;49.740;6.604;2024-02-04T05:15:01;100782.97;;;8.81;100.00
16821;BME280;8527;49.740;6.604;2024-02-04T05:20:00;100778.94;;;8.87;100.00
16821;BME280;8527;49.740;6.604;2024-02-04T05:25:03;100779.94;;;8.86;100.00
16821;BME280;8527;49.740;6.604;2024-02-04T05:30:02;100771.16;;;8.85;100.00
16821;BME280;8527;49.740;6.604;2024-02-04T05:35:01;100780.63;;;8.88;100.00
16821;BME280;8527;49.740;6.604;2024-02-04T05:40:03;100779.66;;;8.89;100.00
16821;BME280;8527;49.740;6.604;2024-02-04T05:45:02;100788.56;;;8.88;100.00
16821;BME280;8527;49.740;6.604;2024-02-04T05:50:02;100784.81;;;8.91;100.00
16821;BME280;8527;49.740;6.604;2024-02-04T05:55:03;100796.13;;;8.93;100.00
16821;BME280;8527;49.740;6.604;2024-02-04T06:00:06;100797.09;;;8.92;100.00
16821;BME280;8527;49.740;6.604;2024-02-04T06:05:05;100807.16;;;8.98;100.00
16821;BME280;8527;49.740;6.604;2024-02-04T06:10:11;100791.41;;;8.96;100.00
16821;BME280;8527;49.740;6.604;2024-02-04T06:15:12;100788.72;;;8.86;100.00
16821;BME280;8527;49.740;6.604;2024-02-04T06:20:14;100779.97;;;8.96;100.00
16821;BME280;8527;49.740;6.604;2024-02-04T06:25:15;100773.97;;;8.94;100.00
16821;BME280;8527;49.740;6.604;2024-02-04T06:30:14;100763.66;;;8.91;100.00
16821;BME280;8527;49.740;6.604;2024-02-04T06:35:13;100784.81;;;8.91;100.00
16821;BME280;8527;49.740;6.604;2024-02-04T06:40:11;100782.44;;;8.88;100.00
16821;BME280;8527;49.740;6.604;2024-02-04T06:45:13;100780.78;;;8.86;100.00
16821;BME280;8527;49.740;6.604;2024-02-04T06:50:11;100771.00;;;8.87;100.00
16821;BME280;8527;49.740;6.604;2024-02-04T06:55:12;100782.69;;;8.84;100.00
16821;BME280;8527;49.740;6.604;2024-02-04T07:00:14;100794.25;;;8.83;100.00
16821;BME280;8527;49.740;6.604;2024-02-04T07:05:13;100796.66;;;8.86;100.00
16821;BME280;8527;49.740;6.604;2024-02-04T07:10:19;100792.06;;;8.89;100.00
16821;BME280;8527;49.740;6.604;2024-02-04T07:15:20;100785.91;;;8.88;100.00
16821;BME280;8527;49.740;6.604;2024-02-04T07:20:18;100770.75;;;8.90;100.00
16821;BME280;8527;49.740;6.604;2024-02-04T07:25:17;100778.28;;;8.95;100.00
16821;BME280;8527;49.740;6.604;2024-02-04T07:30:16;100786.00;;;8.98;100.00
16821;BME280;8527;49.740;6.604;2024-02-04T07:35:18;100799.47;;;8.95;100.00
16821;BME280;8527;49.740;6.604;2024-02-04T07:40:17;100797.50;;;8.97;100.00
16821;BME280;8527;49.740;6.604;2024-02-04T07:45:15;100778.69;;;8.90;100.00
16821;BME280;8527;49.740;6.604;2024-02-04T07:50:14;100774.53;;;8.97;100.00
16821;BME280;8527;49.740;6.604;2024-02-04T07:55:15;100767.47;;;8.98;100.00
16821;BME280;8527;49.740;6.604;2024-02-04T08:00:17;100777.50;;;9.04;100.00
16821;BME280;8527;49.740;6.604;2024-02-04T08:05:18;100786.22;;;8.95;100.00
16821;BME280;8527;49.740;6.604;2024-02-04T08:10:20;100774.28;;;9.00;100.00
16821;BME280;8527;49.740;6.604;2024-02-04T08:15:18;100774.84;;;9.04;100.00
16821;BME280;8527;49.740;6.604;2024-02-04T08:20:17;100789.34;;;9.00;100.00
16821;BME280;8527;49.740;6.604;2024-02-04T08:25:21;100780.69;;;8.98;100.00
16821;BME280;8527;49.740;6.604;2024-02-04T08:30:21;100786.28;;;9.05;100.00
16821;BME280;8527;49.740;6.604;2024-02-04T08:35:19;100786.72;;;9.10;100.00
16821;BME280;8527;49.740;6.604;2024-02-04T08:40:17;100797.44;;;9.08;100.00
16821;BME280;8527;49.740;6.604;2024-02-04T08:45:18;100787.31;;;9.13;100.00
16821;BME280;8527;49.740;6.604;2024-02-04T08:50:17;100794.28;;;9.14;100.00
16821;BME280;8527;49.740;6.604;2024-02-04T08:55:16;100777.72;;;9.22;100.00
16821;BME280;8527;49.740;6.604;2024-02-04T09:00:18;100770.88;;;9.20;100.00
16821;BME280;8527;49.740;6.604;2024-02-04T09:05:17;100777.72;;;9.32;100.00
16821;BME280;8527;49.740;6.604;2024-02-04T09:10:15;100770.06;;;9.29;100.00
16821;BME280;8527;49.740;6.604;2024-02-04T09:15:14;100769.09;;;9.30;100.00
16821;BME280;8527;49.740;6.604;2024-02-04T09:20:15;100780.66;;;9.29;100.00
16821;BME280;8527;49.740;6.604;2024-02-04T09:25:14;100768.28;;;9.39;100.00
16821;BME280;8527;49.740;6.604;2024-02-04T09:30:15;100762.31;;;9.47;100.00
16821;BME280;8527;49.740;6.604;2024-02-04T09:35:16;100768.19;;;9.51;100.00
16821;BME280;8527;49.740;6.604;2024-02-04T09:40:15;100759.94;;;9.44;100.00
16821;BME280;8527;49.740;6.604;2024-02-04T09:45:14;100770.53;;;9.44;100.00
16821;BME280;8527;49.740;6.604;2024-02-04T09:50:16;100769.97;;;9.50;100.00
16821;BME280;8527;49.740;6.604;2024-02-04T09:55:18;100787.41;;;9.53;100.00
16821;BME280;8527;49.740;6.604;2024-02-04T10:00:19;100791.19;;;9.60;100.00
16821;BME280;8527;49.740;6.604;2024-02-04T10:05:20;100807.94;;;9.70;100.00
16821;BME280;8527;49.740;6.604;2024-02-04T10:10:18;100798.91;;;9.73;100.00
16821;BME280;8527;49.740;6.604;2024-02-04T10:15:17;100799.31;;;9.78;100.00
16821;BME280;8527;49.740;6.604;2024-02-04T10:20:21;100805.75;;;9.76;100.00
16821;BME280;8527;49.740;6.604;2024-02-04T10:25:20;100791.66;;;9.85;100.00
16821;BME280;8527;49.740;6.604;2024-02-04T10:30:19;100787.19;;;9.95;100.00
16821;BME280;8527;49.740;6.604;2024-02-04T10:35:17;100792.63;;;10.13;100.00
16821;BME280;8527;49.740;6.604;2024-02-04T10:40:21;100797.69;;;10.26;100.00
16821;BME280;8527;49.740;6.604;2024-02-04T10:45:26;100783.56;;;10.36;100.00
16821;BME280;8527;49.740;6.604;2024-02-04T10:50:28;100789.00;;;10.34;100.00
16821;BME280;8527;49.740;6.604;2024-02-04T10:55:32;100780.78;;;10.27;100.00
16821;BME280;8527;49.740;6.604;2024-02-04T11:00:36;100777.00;;;10.30;100.00
16821;BME280;8527;49.740;6.604;2024-02-04T11:05:36;100769.63;;;10.24;100.00
16821;BME280;8527;49.740;6.604;2024-02-04T11:10:38;100774.22;;;10.22;100.00
16821;BME280;8527;49.740;6.604;2024-02-04T11:15:38;100776.72;;;10.23;100.00
16821;BME280;8527;49.740;6.604;2024-02-04T11:21:03;100771.56;;;10.22;100.00
16821;BME280;8527;49.740;6.604;2024-02-04T11:26:08;100769.06;;;10.20;100.00
16821;BME280;8527;49.740;6.604;2024-02-04T11:31:13;100770.03;;;10.19;100.00
16821;BME280;8527;49.740;6.604;2024-02-04T11:36:13;100746.72;;;10.23;100.00
16821;BME280;8527;49.740;6.604;2024-02-04T11:41:21;100756.94;;;10.18;100.00
16821;BME280;8527;49.740;6.604;2024-02-04T11:46:20;100755.50;;;10.23;100.00
16821;BME280;8527;49.740;6.604;2024-02-04T11:51:21;100743.09;;;10.24;100.00
16821;BME280;8527;49.740;6.604;2024-02-04T11:56:24;100732.75;;;10.31;100.00
16821;BME280;8527;49.740;6.604;2024-02-04T12:01:24;100747.69;;;10.32;100.00
16821;BME280;8527;49.740;6.604;2024-02-04T12:06:26;100751.47;;;10.49;100.00
16821;BME280;8527;49.740;6.604;2024-02-04T12:11:27;100750.47;;;10.50;100.00
16821;BME280;8527;49.740;6.604;2024-02-04T12:16:26;100737.78;;;10.53;100.00
16821;BME280;8527;49.740;6.604;2024-02-04T12:21:25;100739.41;;;10.64;100.00
16821;BME280;8527;49.740;6.604;2024-02-04T12:26:23;100729.94;;;10.62;100.00
16821;BME280;8527;49.740;6.604;2024-02-04T12:31:26;100724.63;;;10.62;100.00
16821;BME280;8527;49.740;6.604;2024-02-04T12:36:26;100720.81;;;10.64;100.00
16821;BME280;8527;49.740;6.604;2024-02-04T12:41:25;100709.41;;;10.54;100.00
16821;BME280;8527;49.740;6.604;2024-02-04T12:46:26;100692.31;;;10.66;100.00
16821;BME280;8527;49.740;6.604;2024-02-04T12:51:25;100683.53;;;10.66;100.00
16821;BME280;8527;49.740;6.604;2024-02-04T12:56:23;100689.66;;;10.66;100.00
16821;BME280;8527;49.740;6.604;2024-02-04T13:01:22;100692.88;;;10.70;100.00
16821;BME280;8527;49.740;6.604;2024-02-04T13:06:23;100686.59;;;10.71;100.00
16821;BME280;8527;49.740;6.604;2024-02-04T13:11:24;100673.00;;;10.74;100.00
16821;BME280;8527;49.740;6.604;2024-02-04T13:16:23;100681.38;;;10.79;100.00
16821;BME280;8527;49.740;6.604;2024-02-04T13:21:25;100684.47;;;10.75;100.00
16821;BME280;8527;49.740;6.604;2024-02-04T13:26:26;100684.88;;;10.80;99.69
16821;BME280;8527;49.740;6.604;2024-02-04T13:31:24;100686.69;;;10.79;100.00
16821;BME280;8527;49.740;6.604;2024-02-04T13:36:32;100687.25;;;10.73;100.00
16821;BME280;8527;49.740;6.604;2024-02-04T13:41:30;100690.66;;;10.65;100.00
16821;BME280;8527;49.740;6.604;2024-02-04T13:46:32;100677.38;;;10.65;100.00
16821;BME280;8527;49.740;6.604;2024-02-04T13:51:36;100680.88;;;10.66;100.00
16821;BME280;8527;49.740;6.604;2024-02-04T13:56:35;100675.28;;;10.69;100.00
16821;BME280;8527;49.740;6.604;2024-02-04T14:01:34;100672.06;;;10.75;100.00
16821;BME280;8527;49.740;6.604;2024-02-04T14:06:32;100669.22;;;10.49;100.00
16821;BME280;8527;49.740;6.604;2024-02-04T14:11:34;100663.88;;;10.59;100.00
16821;BME280;8527;49.740;6.604;2024-02-04T14:16:39;100663.44;;;10.63;100.00
16821;BME280;8527;49.740;6.604;2024-02-04T14:21:37;100670.22;;;10.76;100.00
16821;BME280;8527;49.740;6.604;2024-02-04T14:26:39;100665.94;;;10.65;100.00
16821;BME280;8527;49.740;6.604;2024-02-04T14:31:39;100657.56;;;10.60;100.00
16821;BME280;8527;49.740;6.604;2024-02-04T14:36:38;100652.19;;;10.51;100.00
16821;BME280;8527;49.740;6.604;2024-02-04T14:41:39;100663.31;;;10.55;100.00
16821;BME280;8527;49.740;6.604;2024-02-04T14:46:41;100655.22;;;10.57;100.00
16821;BME280;8527;49.740;6.604;2024-02-04T14:51:41;100654.41;;;10.56;100.00
16821;BME280;8527;49.740;6.604;2024-02-04T14:56:42;100655.34;;;10.55;100.00
16821;BME280;8527;49.740;6.604;2024-02-04T15:01:45;100652.06;;;10.43;100.00
16821;BME280;8527;49.740;6.604;2024-02-04T15:06:44;100654.97;;;10.40;100.00
16821;BME280;8527;49.740;6.604;2024-02-04T15:11:46;100661.38;;;10.47;100.00
16821;BME280;8527;49.740;6.604;2024-02-04T15:16:45;100665.47;;;10.41;100.00
16821;BME280;8527;49.740;6.604;2024-02-04T15:21:47;100656.38;;;10.44;100.00
16821;BME280;8527;49.740;6.604;2024-02-04T15:26:53;100661.41;;;10.37;100.00
16821;BME280;8527;49.740;6.604;2024-02-04T15:31:53;100656.38;;;10.34;100.00
16821;BME280;8527;49.740;6.604;2024-02-04T15:36:52;100655.69;;;10.42;100.00
16821;BME280;8527;49.740;6.604;2024-02-04T15:41:53;100663.22;;;10.47;100.00
16821;BME280;8527;49.740;6.604;2024-02-04T15:46:52;100676.50;;;10.37;100.00
16821;BME280;8527;49.740;6.604;2024-02-04T15:51:52;100676.06;;;10.32;100.00
16821;BME280;8527;49.740;6.604;2024-02-04T15:56:56;100667.00;;;10.34;100.00
16821;BME280;8527;49.740;6.604;2024-02-04T16:01:59;100667.56;;;10.28;100.00
16821;BME280;8527;49.740;6.604;2024-02-04T16:06:59;100671.63;;;10.32;100.00
16821;BME280;8527;49.740;6.604;2024-02-04T16:12:05;100665.75;;;10.28;100.00
16821;BME280;8527;49.740;6.604;2024-02-04T16:17:05;100668.00;;;10.23;100.00
16821;BME280;8527;49.740;6.604;2024-02-04T16:22:04;100669.69;;;10.14;100.00
16821;BME280;8527;49.740;6.604;2024-02-04T16:27:05;100670.28;;;10.08;100.00
16821;BME280;8527;49.740;6.604;2024-02-04T16:32:04;100680.47;;;10.13;100.00
16821;BME280;8527;49.740;6.604;2024-02-04T16:37:03;100692.88;;;10.12;100.00
16821;BME280;8527;49.740;6.604;2024-02-04T16:42:07;100685.75;;;10.03;100.00
16821;BME280;8527;49.740;6.604;2024-02-04T16:47:06;100682.69;;;9.98;100.00
16821;BME280;8527;49.740;6.604;2024-02-04T16:52:05;100689.41;;;9.92;100.00
16821;BME280;8527;49.740;6.604;2024-02-04T16:57:11;100691.38;;;9.90;100.00
16821;BME280;8527;49.740;6.604;2024-02-04T17:02:09;100692.47;;;9.78;100.00
16821;BME280;8527;49.740;6.604;2024-02-04T17:07:09;100694.16;;;9.79;100.00
16821;BME280;8527;49.740;6.604;2024-02-04T17:12:15;100695.94;;;9.78;100.00
16821;BME280;8527;49.740;6.604;2024-02-04T17:17:15;100699.59;;;9.77;100.00
16821;BME280;8527;49.740;6.604;2024-02-04T17:22:18;100703.91;;;9.68;100.00
16821;BME280;8527;49.740;6.604;2024-02-04T17:27:20;100712.56;;;9.70;100.00
16821;BME280;8527;49.740;6.604;2024-02-04T17:32:20;100725.97;;;9.79;100.00
16821;BME280;8527;49.740;6.604;2024-02-04T17:37:21;100716.47;;;9.76;100.00
16821;BME280;8527;49.740;6.604;2024-02-04T17:42:23;100717.59;;;9.74;100.00
16821;BME280;8527;49.740;6.604;2024-02-04T17:47:23;100699.03;;;9.74;100.00
16821;BME280;8527;49.740;6.604;2024-02-04T17:52:24;100693.31;;;9.68;100.00
16821;BME280;8527;49.740;6.604;2024-02-04T17:57:25;100699.72;;;9.66;100.00
16821;BME280;8527;49.740;6.604;2024-02-04T18:02:23;100692.91;;;9.73;100.00
16821;BME280;8527;49.740;6.604;2024-02-04T18:07:25;100680.91;;;9.69;100.00
16821;BME280;8527;49.740;6.604;2024-02-04T18:12:32;100686.19;;;9.59;100.00
16821;BME280;8527;49.740;6.604;2024-02-04T18:17:31;100684.25;;;9.61;100.00
16821;BME280;8527;49.740;6.604;2024-02-04T18:22:29;100686.19;;;9.59;100.00
16821;BME280;8527;49.740;6.604;2024-02-04T18:27:33;100687.59;;;9.63;100.00
16821;BME280;8527;49.740;6.604;2024-02-04T18:32:43;100688.59;;;9.62;100.00
16821;BME280;8527;49.740;6.604;2024-02-04T18:37:42;100686.06;;;9.61;100.00
16821;BME280;8527;49.740;6.604;2024-02-04T18:42:43;100671.56;;;9.55;100.00
16821;BME280;8527;49.740;6.604;2024-02-04T18:47:42;100655.25;;;9.50;100.00
16821;BME280;8527;49.740;6.604;2024-02-04T18:52:41;100649.09;;;9.49;100.00
16821;BME280;8527;49.740;6.604;2024-02-04T18:57:44;100649.97;;;9.50;100.00
16821;BME280;8527;49.740;6.604;2024-02-04T19:02:45;100648.41;;;9.47;100.00
16821;BME280;8527;49.740;6.604;2024-02-04T19:07:43;100655.09;;;9.51;100.00
16821;BME280;8527;49.740;6.604;2024-02-04T19:12:46;100657.91;;;9.50;100.00
16821;BME280;8527;49.740;6.604;2024-02-04T19:17:44;100661.94;;;9.54;100.00
16821;BME280;8527;49.740;6.604;2024-02-04T19:22:43;100682.16;;;9.55;100.00
16821;BME280;8527;49.740;6.604;2024-02-04T19:27:49;100670.00;;;9.52;100.00
16821;BME280;8527;49.740;6.604;2024-02-04T19:32:49;100667.09;;;9.46;100.00
16821;BME280;8527;49.740;6.604;2024-02-04T19:37:48;100661.09;;;9.43;100.00
16821;BME280;8527;49.740;6.604;2024-02-04T19:42:52;100662.34;;;9.49;100.00
16821;BME280;8527;49.740;6.604;2024-02-04T19:48:00;100660.56;;;9.50;100.00
16821;BME280;8527;49.740;6.604;2024-02-04T19:52:58;100664.03;;;9.50;100.00
16821;BME280;8527;49.740;6.604;2024-02-04T19:58:00;100664.59;;;9.54;100.00
16821;BME280;8527;49.740;6.604;2024-02-04T20:02:59;100664.72;;;9.52;100.00
16821;BME280;8527;49.740;6.604;2024-02-04T20:07:58;100669.31;;;9.50;100.00
16821;BME280;8527;49.740;6.604;2024-02-04T20:13:10;100662.34;;;9.49;100.00
16821;BME280;8527;49.740;6.604;2024-02-04T20:18:11;100647.16;;;9.51;100.00
16821;BME280;8527;49.740;6.604;2024-02-04T20:23:18;100627.50;;;9.44;100.00
16821;BME280;8527;49.740;6.604;2024-02-04T20:28:23;100626.25;;;9.48;100.00
16821;BME280;8527;49.740;6.604;2024-02-04T20:33:28;100643.25;;;9.46;100.00
16821;BME280;8527;49.740;6.604;2024-02-04T20:38:29;100657.47;;;9.45;100.00
16821;BME280;8527;49.740;6.604;2024-02-04T20:43:33;100663.47;;;9.47;100.00
16821;BME280;8527;49.740;6.604;2024-02-04T20:48:33;100670.03;;;9.42;100.00
16821;BME280;8527;49.740;6.604;2024-02-04T20:53:31;100658.03;;;9.48;100.00
16821;BME280;8527;49.740;6.604;2024-02-04T20:58:33;100678.94;;;9.51;100.00
16821;BME280;8527;49.740;6.604;2024-02-04T21:03:36;100695.13;;;9.48;100.00
16821;BME280;8527;49.740;6.604;2024-02-04T21:08:35;100678.81;;;9.43;100.00
16821;BME280;8527;49.740;6.604;2024-02-04T21:13:36;100675.72;;;9.38;100.00
16821;BME280;8527;49.740;6.604;2024-02-04T21:18:35;100674.75;;;9.39;100.00
16821;BME280;8527;49.740;6.604;2024-02-04T21:23:33;100670.59;;;9.36;100.00
16821;BME280;8527;49.740;6.604;2024-02-04T21:28:32;100649.69;;;9.43;100.00
16821;BME280;8527;49.740;6.604;2024-02-04T21:33:33;100647.69;;;9.35;100.00
16821;BME280;8527;49.740;6.604;2024-02-04T21:38:38;100640.19;;;9.40;100.00
16821;BME280;8527;49.740;6.604;2024-02-04T21:43:36;100639.34;;;9.40;100.00
16821;BME280;8527;49.740;6.604;2024-02-04T21:48:42;100636.69;;;9.40;100.00
16821;BME280;8527;49.740;6.604;2024-02-04T21:53:40;100634.03;;;9.40;100.00
16821;BME280;8527;49.740;6.604;2024-02-04T21:58:41;100627.22;;;9.37;100.00
16821;BME280;8527;49.740;6.604;2024-02-04T22:03:42;100629.47;;;9.42;100.00
16821;BME280;8527;49.740;6.604;2024-02-04T22:08:41;100631.41;;;9.40;100.00
16821;BME280;8527;49.740;6.604;2024-02-04T22:13:43;100624.72;;;9.36;100.00
16821;BME280;8527;49.740;6.604;2024-02-04T22:18:44;100627.22;;;9.37;100.00
16821;BME280;8527;49.740;6.604;2024-02-04T22:23:42;100637.94;;;9.46;100.00
16821;BME280;8527;49.740;6.604;2024-02-04T22:28:41;100631.41;;;9.40;100.00
16821;BME280;8527;49.740;6.604;2024-02-04T22:33:40;100626.94;;;9.40;100.00
16821;BME280;8527;49.740;6.604;2024-02-04T22:38:41;100633.34;;;9.38;100.00
16821;BME280;8527;49.740;6.604;2024-02-04T22:43:39;100621.94;;;9.37;100.00
16821;BME280;8527;49.740;6.604;2024-02-04T22:48:38;100626.66;;;9.34;100.00
16821;BME280;8527;49.740;6.604;2024-02-04T22:53:36;100613.84;;;9.29;100.00
16821;BME280;8527;49.740;6.604;2024-02-04T22:58:42;100607.69;;;9.28;100.00
16821;BME280;8527;49.740;6.604;2024-02-04T23:03:41;100611.31;;;9.27;100.00
16821;BME280;8527;49.740;6.604;2024-02-04T23:08:39;100606.31;;;9.24;100.00
16821;BME280;8527;49.740;6.604;2024-02-04T23:13:44;100595.03;;;9.22;100.00
16821;BME280;8527;49.740;6.604;2024-02-04T23:18:49;100607.41;;;9.22;100.00
16821;BME280;8527;49.740;6.604;2024-02-04T23:23:48;100602.13;;;9.22;100.00
16821;BME280;8527;49.740;6.604;2024-02-04T23:28:52;100600.84;;;9.16;100.00
16821;BME280;8527;49.740;6.604;2024-02-04T23:33:51;100604.06;;;9.20;100.00
16821;BME280;8527;49.740;6.604;2024-02-04T23:38:58;100599.34;;;9.23;100.00
16821;BME280;8527;49.740;6.604;2024-02-04T23:43:59;100600.19;;;9.24;100.00
16821;BME280;8527;49.740;6.604;2024-02-04T23:49:01;100601.16;;;9.23;100.00
16821;BME280;8527;49.740;6.604;2024-02-04T23:54:00;100606.47;;;9.23;100.00
16821;BME280;8527;49.740;6.604;2024-02-04T23:59:05;100615.22;;;9.23;100.00
